Time;durP1;ratioP1;P1;durP2;ratioP2;P2;SDS_P1;SDS_P2;PMS_P1;PMS_P2;Temp;Humidity;BMP_temperature;BMP_pressure;BME280_temperature;BME280_humidity;BME280_pressure;Samples;Min_cycle;Max_cycle;Signal;HPM_P1;HPM_P2
2023/08/13 00:01:57;;;;;;;4.13;3.28;;;;;;;21.05;49.31;95402.72;5084528;28;20119;-87
2023/08/13 00:04:22;;;;;;;5.22;3.30;;;;;;;21.00;49.62;95397.09;5085641;28;20086;-87
2023/08/13 00:06:47;;;;;;;5.20;3.58;;;;;;;20.92;49.27;95386.34;5066923;28;20016;-87
2023/08/13 00:09:14;;;;;;;6.03;3.58;;;;;;;20.90;49.38;95391.66;5070867;28;20456;-87
2023/08/13 00:11:39;;;;;;;4.63;3.22;;;;;;;20.90;49.57;95388.88;5073700;28;20107;-88
2023/08/13 00:14:05;;;;;;;5.55;3.08;;;;;;;20.83;49.69;95383.72;5085143;28;20458;-87
2023/08/13 00:16:30;;;;;;;4.75;3.10;;;;;;;20.79;50.02;95391.56;5086264;28;20040;-87
2023/08/13 00:18:55;;;;;;;3.08;2.67;;;;;;;20.76;49.91;95389.75;5086114;28;20035;-87
2023/08/13 00:21:21;;;;;;;5.35;3.35;;;;;;;20.74;50.18;95391.50;5086759;28;20032;-87
2023/08/13 00:23:46;;;;;;;4.93;2.83;;;;;;;20.68;50.25;95399.81;5083750;28;20416;-86
2023/08/13 00:26:12;;;;;;;5.82;3.35;;;;;;;20.61;50.26;95400.25;5086627;28;20030;-87
2023/08/13 00:28:37;;;;;;;3.20;2.90;;;;;;;20.57;50.48;95406.06;5067019;28;20028;-86
2023/08/13 00:31:02;;;;;;;4.00;3.10;;;;;;;20.54;50.68;95400.69;5068062;28;20028;-86
2023/08/13 00:33:28;;;;;;;3.97;3.15;;;;;;;20.47;50.54;95403.91;5084360;28;20020;-87
2023/08/13 00:35:53;;;;;;;4.43;3.58;;;;;;;20.44;50.91;95402.84;5084547;28;20490;-86
2023/08/13 00:38:19;;;;;;;4.07;3.15;;;;;;;20.38;50.72;95407.59;5084769;28;20054;-87
2023/08/13 00:40:44;;;;;;;3.97;3.20;;;;;;;20.32;50.59;95413.13;5083845;28;20449;-87
2023/08/13 00:43:10;;;;;;;3.63;3.10;;;;;;;20.29;50.89;95405.72;5068483;28;20551;-87
2023/08/13 00:45:35;;;;;;;5.05;3.25;;;;;;;20.21;50.79;95407.41;5083468;28;20043;-87
2023/08/13 00:48:02;;;;;;;3.47;2.92;;;;;;;20.19;50.92;95409.16;5086011;28;20024;-86
2023/08/13 00:50:28;;;;;;;3.70;3.05;;;;;;;20.14;50.94;95407.81;5069696;28;20028;-87
2023/08/13 00:52:54;;;;;;;5.03;2.60;;;;;;;20.09;51.02;95405.72;5068560;28;20088;-86
2023/08/13 00:55:19;;;;;;;3.30;2.78;;;;;;;20.07;51.08;95402.66;5084920;28;20024;-86
2023/08/13 00:57:44;;;;;;;4.53;3.20;;;;;;;20.03;51.21;95410.47;5069081;28;20028;-86
2023/08/13 01:00:12;;;;;;;5.15;3.15;;;;;;;19.93;51.49;95404.25;5085151;28;20020;-87
2023/08/13 01:02:38;;;;;;;4.60;2.90;;;;;;;19.93;51.72;95398.66;5086632;28;20028;-87
2023/08/13 01:05:05;;;;;;;3.63;3.10;;;;;;;19.88;52.19;95408.50;5089100;28;20486;-87
2023/08/13 01:07:49;;;;;;;3.72;3.20;;;;;;;19.85;51.98;95403.91;5087689;28;20020;-88
2023/08/13 01:10:33;;;;;;;6.03;3.17;;;;;;;19.78;52.46;95397.94;5091047;28;20044;-87
2023/08/13 01:13:11;;;;;;;4.25;2.60;;;;;;;19.79;52.52;95403.06;5082802;28;20173;-88
2023/08/13 01:15:39;;;;;;;3.60;2.97;;;;;;;19.75;52.39;95396.91;5088408;28;20028;-87
2023/08/13 01:18:05;;;;;;;3.92;2.88;;;;;;;19.73;52.94;95398.66;5072684;28;20057;-88
2023/08/13 01:20:36;;;;;;;3.80;3.20;;;;;;;19.69;52.96;95390.50;5070531;28;20052;-87
2023/08/13 01:23:03;;;;;;;5.13;3.28;;;;;;;19.61;52.74;95378.19;5071314;28;20024;-87
2023/08/13 01:25:29;;;;;;;7.03;3.25;;;;;;;19.60;53.03;95388.59;5087893;28;20077;-88
2023/08/13 01:27:57;;;;;;;5.82;3.28;;;;;;;19.52;53.06;95384.66;5087729;28;20020;-87
2023/08/13 01:30:29;;;;;;;6.75;3.30;;;;;;;19.51;53.14;95382.34;5088381;28;20540;-88
2023/08/13 01:33:02;;;;;;;5.90;3.10;;;;;;;19.52;52.60;95398.59;5069830;28;20027;-87
2023/08/13 01:35:30;;;;;;;4.45;3.15;;;;;;;19.49;52.91;95393.97;5088654;28;20028;-87
2023/08/13 01:37:56;;;;;;;5.05;3.22;;;;;;;19.48;52.73;95392.44;5070093;28;20038;-87
2023/08/13 01:40:22;;;;;;;6.15;3.35;;;;;;;19.31;52.94;95383.81;5088442;28;20107;-87
2023/08/13 01:42:47;;;;;;;4.55;3.20;;;;;;;19.40;53.14;95390.56;5087559;28;20107;-86
2023/08/13 01:45:12;;;;;;;5.13;3.13;;;;;;;19.36;52.89;95397.06;5070616;28;20020;-86
2023/08/13 01:47:38;;;;;;;4.13;3.40;;;;;;;19.39;53.37;95400.16;5071365;28;20030;-86
2023/08/13 01:50:04;;;;;;;4.68;3.00;;;;;;;19.32;53.36;95398.53;5069691;28;20027;-86
2023/08/13 01:52:31;;;;;;;4.82;3.10;;;;;;;19.34;53.63;95398.81;5071420;28;20085;-86
2023/08/13 01:54:56;;;;;;;3.20;2.85;;;;;;;19.29;53.67;95391.91;5086446;28;20470;-87
2023/08/13 01:57:22;;;;;;;5.47;3.33;;;;;;;19.30;53.48;95401.03;5070871;28;20035;-86
2023/08/13 01:59:47;;;;;;;5.60;3.00;;;;;;;19.29;53.47;95402.28;5086765;28;20042;-87
2023/08/13 02:02:12;;;;;;;4.47;3.30;;;;;;;19.21;53.90;95390.78;5088633;28;20572;-86
2023/08/13 02:04:38;;;;;;;5.15;3.55;;;;;;;19.20;53.87;95396.81;5088963;28;20028;-86
2023/08/13 02:07:03;;;;;;;4.90;3.20;;;;;;;19.16;54.03;95391.47;5087805;28;20058;-87
2023/08/13 02:09:29;;;;;;;4.82;3.20;;;;;;;19.18;54.08;95402.13;5071114;28;20044;-86
2023/08/13 02:11:54;;;;;;;4.43;3.03;;;;;;;19.15;54.25;95395.47;5086213;28;20507;-86
2023/08/13 02:14:20;;;;;;;4.97;3.50;;;;;;;19.13;54.34;95391.66;5087102;28;20042;-87
2023/08/13 02:16:47;;;;;;;4.78;3.20;;;;;;;19.08;54.68;95396.63;5070758;28;20047;-86
2023/08/13 02:19:12;;;;;;;3.78;3.13;;;;;;;19.02;54.23;95383.88;5073897;28;20024;-86
2023/08/13 02:21:38;;;;;;;5.93;4.40;;;;;;;19.02;54.28;95389.44;5088095;28;20066;-86
2023/08/13 02:24:03;;;;;;;4.35;3.88;;;;;;;19.01;54.10;95387.91;5088393;28;20027;-86
2023/08/13 02:26:29;;;;;;;4.10;3.60;;;;;;;18.93;54.44;95392.34;5090132;28;20059;-86
2023/08/13 02:28:54;;;;;;;3.85;3.33;;;;;;;18.92;54.87;95399.13;5087629;28;20032;-86
2023/08/13 02:31:19;;;;;;;6.90;3.80;;;;;;;18.84;54.64;95393.97;5087698;28;20031;-87
2023/08/13 02:33:45;;;;;;;3.97;3.05;;;;;;;18.83;54.71;95395.22;5085994;28;20020;-86
2023/08/13 02:36:10;;;;;;;4.00;3.58;;;;;;;18.79;54.69;95405.78;5087655;28;20032;-86
2023/08/13 02:38:36;;;;;;;4.72;3.88;;;;;;;18.84;54.51;95407.13;5086558;28;20030;-86
2023/08/13 02:41:01;;;;;;;4.22;3.33;;;;;;;18.78;54.52;95401.44;5086687;28;20020;-86
2023/08/13 02:43:29;;;;;;;5.38;3.42;;;;;;;18.72;54.62;95406.16;5086836;28;20035;-86
2023/08/13 02:45:55;;;;;;;4.38;3.10;;;;;;;18.75;54.68;95404.41;5085725;28;20090;-86
2023/08/13 02:48:20;;;;;;;5.72;3.25;;;;;;;18.65;54.94;95406.50;5087443;28;20024;-86
2023/08/13 02:50:46;;;;;;;4.72;3.55;;;;;;;18.65;54.78;95412.09;5068710;28;20024;-86
2023/08/13 02:53:11;;;;;;;4.20;3.47;;;;;;;18.62;54.59;95410.25;5087250;28;20478;-85
2023/08/13 02:55:38;;;;;;;4.15;3.28;;;;;;;18.64;54.90;95418.91;5085743;28;20054;-86
2023/08/13 02:58:03;;;;;;;5.03;3.50;;;;;;;18.63;54.90;95416.56;5069326;28;20027;-85
2023/08/13 03:00:29;;;;;;;5.93;3.70;;;;;;;18.59;55.14;95419.56;5069266;28;20088;-86
2023/08/13 03:02:54;;;;;;;6.63;3.47;;;;;;;18.58;55.27;95415.25;5069228;28;20020;-87
2023/08/13 03:05:19;;;;;;;4.10;3.38;;;;;;;18.53;55.29;95411.09;5069947;28;20030;-86
2023/08/13 03:07:45;;;;;;;7.25;3.58;;;;;;;18.51;55.50;95413.59;5068469;28;20116;-87
2023/08/13 03:10:11;;;;;;;5.95;3.75;;;;;;;18.46;55.49;95405.88;5086598;28;20445;-86
2023/08/13 03:12:36;;;;;;;7.55;3.38;;;;;;;18.43;55.51;95409.63;5086603;28;20055;-86
2023/08/13 03:15:02;;;;;;;3.97;3.35;;;;;;;18.45;55.50;95414.72;5087588;28;20031;-86
2023/08/13 03:17:28;;;;;;;4.45;3.38;;;;;;;18.40;55.64;95405.03;5087154;28;20130;-86
2023/08/13 03:19:53;;;;;;;4.03;3.45;;;;;;;18.44;55.62;95418.75;5085877;28;20107;-87
2023/08/13 03:22:18;;;;;;;3.70;3.28;;;;;;;18.42;55.50;95418.47;5088437;28;20039;-87
2023/08/13 03:24:44;;;;;;;4.03;2.92;;;;;;;18.40;55.60;95405.03;5084941;28;20024;-87
2023/08/13 03:27:09;;;;;;;4.70;3.50;;;;;;;18.41;55.73;95419.69;5069239;28;20375;-87
2023/08/13 03:29:35;;;;;;;5.53;3.85;;;;;;;18.43;55.78;95415.22;5067852;28;20119;-87
2023/08/13 03:32:01;;;;;;;6.70;3.55;;;;;;;18.40;55.60;95418.94;5087587;28;20411;-87
2023/08/13 03:34:26;;;;;;;4.22;3.22;;;;;;;18.37;55.53;95413.56;5085091;28;20024;-87
2023/08/13 03:36:52;;;;;;;5.70;3.42;;;;;;;18.37;55.69;95411.56;5068929;28;20016;-87
2023/08/13 03:39:18;;;;;;;4.43;3.30;;;;;;;18.31;55.80;95400.31;5068965;28;20034;-87
2023/08/13 03:41:44;;;;;;;5.25;3.70;;;;;;;18.36;55.99;95406.47;5067589;28;20473;-87
2023/08/13 03:44:09;;;;;;;3.63;3.33;;;;;;;18.33;55.96;95408.19;5085589;28;20446;-87
2023/08/13 03:46:35;;;;;;;5.78;3.80;;;;;;;18.35;56.08;95410.47;5084713;28;20023;-86
2023/08/13 03:49:00;;;;;;;4.75;3.70;;;;;;;18.33;56.33;95407.41;5068995;28;20027;-86
2023/08/13 03:51:25;;;;;;;5.45;3.78;;;;;;;18.33;56.18;95412.97;5067719;28;20043;-86
2023/08/13 03:53:51;;;;;;;6.10;4.15;;;;;;;18.30;56.55;95415.47;5068768;28;20028;-85
2023/08/13 03:56:16;;;;;;;9.40;3.92;;;;;;;18.30;56.39;95414.72;5084656;28;20393;-86
2023/08/13 03:58:42;;;;;;;7.90;4.25;;;;;;;18.26;56.59;95419.69;5085167;28;20340;-86
2023/08/13 04:01:08;;;;;;;9.10;5.00;;;;;;;18.29;56.76;95422.28;5085181;28;20032;-87
2023/08/13 04:03:33;;;;;;;6.45;4.20;;;;;;;18.27;56.87;95421.97;5085098;28;20474;-89
2023/08/13 04:05:59;;;;;;;6.60;4.15;;;;;;;18.25;56.89;95424.47;5085977;28;20077;-89
2023/08/13 04:08:25;;;;;;;8.68;4.07;;;;;;;18.27;56.75;95426.78;5084350;28;20031;-88
2023/08/13 04:10:51;;;;;;;5.95;3.45;;;;;;;18.26;56.74;95417.66;5086191;28;20044;-90
2023/08/13 04:13:17;;;;;;;8.40;4.20;;;;;;;18.25;56.72;95424.47;5085095;28;20094;-89
2023/08/13 04:15:42;;;;;;;6.55;3.53;;;;;;;18.20;56.74;95425.13;5087384;28;20027;-90
2023/08/13 04:18:07;;;;;;;4.57;3.55;;;;;;;18.24;56.71;95434.06;5087157;28;20123;-90
2023/08/13 04:20:35;;;;;;;5.15;3.90;;;;;;;18.24;56.63;95431.28;5086656;28;20032;-90
2023/08/13 04:23:01;;;;;;;5.38;3.60;;;;;;;18.18;56.52;95427.63;5086167;28;20583;-88
2023/08/13 04:25:26;;;;;;;7.00;3.53;;;;;;;18.20;56.58;95439.03;5095080;28;20081;-88
2023/08/13 04:27:51;;;;;;;5.57;3.55;;;;;;;18.20;56.57;95436.25;5086867;28;20402;-89
2023/08/13 04:30:17;;;;;;;6.20;3.80;;;;;;;18.16;56.73;95441.22;5084567;28;20024;-89
2023/08/13 04:32:54;;;;;;;4.47;3.88;;;;;;;18.22;56.72;95447.69;5086022;28;20471;-89
2023/08/13 04:35:20;;;;;;;5.15;4.03;;;;;;;18.20;56.89;95446.63;5069127;28;20028;-90
2023/08/13 04:37:46;;;;;;;7.03;4.13;;;;;;;18.22;56.91;95444.91;5086841;28;20082;-88
2023/08/13 04:40:11;;;;;;;6.32;3.75;;;;;;;18.25;56.60;95454.31;5088147;28;20027;-88
2023/08/13 04:42:37;;;;;;;4.93;3.80;;;;;;;18.25;56.84;95457.88;5085816;28;20032;-90
2023/08/13 04:45:02;;;;;;;4.80;3.95;;;;;;;18.23;56.58;95454.00;5086354;28;20040;-90
2023/08/13 04:47:28;;;;;;;6.35;4.38;;;;;;;18.25;56.21;95455.09;5084370;28;20070;-90
2023/08/13 04:49:53;;;;;;;6.25;4.60;;;;;;;18.26;56.37;95453.84;5087142;28;20036;-90
2023/08/13 04:52:18;;;;;;;5.22;3.88;;;;;;;18.31;56.30;95461.53;5068507;28;20406;-90
2023/08/13 04:54:47;;;;;;;6.35;4.28;;;;;;;18.30;56.17;95460.00;5085785;28;20027;-91
2023/08/13 04:57:13;;;;;;;5.30;4.07;;;;;;;18.35;56.30;95471.69;5069119;28;20024;-89
2023/08/13 04:59:38;;;;;;;7.65;4.43;;;;;;;18.38;56.52;95465.19;5088805;28;20046;-89
2023/08/13 05:02:03;;;;;;;6.30;4.03;;;;;;;18.46;56.44;95469.91;5088716;28;20513;-90
2023/08/13 05:04:29;;;;;;;7.80;4.65;;;;;;;18.48;56.12;95469.47;5085763;28;20433;-90
2023/08/13 05:06:54;;;;;;;7.38;4.40;;;;;;;18.49;55.97;95462.63;5086176;28;20035;-89
2023/08/13 05:09:20;;;;;;;8.77;4.32;;;;;;;18.46;55.91;95460.78;5084552;28;20044;-90
2023/08/13 05:11:45;;;;;;;5.00;3.67;;;;;;;18.48;55.90;95466.69;5068845;28;20021;-90
2023/08/13 05:14:10;;;;;;;6.20;4.13;;;;;;;18.53;55.83;95466.03;5068101;28;20383;-90
2023/08/13 05:16:36;;;;;;;6.53;4.07;;;;;;;18.52;55.86;95478.38;5085546;28;20107;-90
2023/08/13 05:19:01;;;;;;;7.72;3.90;;;;;;;18.58;56.09;95473.72;5085697;28;20117;-90
2023/08/13 05:21:27;;;;;;;5.63;3.90;;;;;;;18.66;55.40;95465.75;5084615;28;20032;-90
2023/08/13 05:23:52;;;;;;;5.50;3.63;;;;;;;18.74;55.34;95470.50;5085736;28;20031;-90
2023/08/13 05:26:17;;;;;;;4.70;3.63;;;;;;;18.79;55.27;95472.59;5067412;28;20055;-89
2023/08/13 05:28:43;;;;;;;4.93;3.70;;;;;;;18.86;54.64;95467.91;5089739;28;20052;-89
2023/08/13 05:31:08;;;;;;;5.53;3.50;;;;;;;18.89;54.44;95470.53;5086487;28;20866;-89
2023/08/13 05:33:34;;;;;;;6.15;4.30;;;;;;;18.95;54.50;95467.84;5086547;28;20055;-89
2023/08/13 05:35:59;;;;;;;5.43;3.85;;;;;;;19.01;53.57;95472.25;5085077;28;20467;-89
2023/08/13 05:38:25;;;;;;;5.85;4.03;;;;;;;19.05;53.76;95463.72;5085063;28;20028;-90
2023/08/13 05:40:50;;;;;;;4.45;3.67;;;;;;;19.08;53.64;95465.53;5085954;28;20446;-90
2023/08/13 05:43:16;;;;;;;4.20;3.78;;;;;;;19.08;53.31;95471.09;5085180;28;20490;-89
2023/08/13 05:45:41;;;;;;;5.38;3.33;;;;;;;19.11;53.71;95470.16;5085790;28;20020;-89
2023/08/13 05:48:07;;;;;;;4.30;3.55;;;;;;;19.19;53.51;95473.31;5067385;28;20036;-89
2023/08/13 05:50:32;;;;;;;4.82;3.15;;;;;;;19.22;53.64;95475.16;5088247;28;20114;-90
2023/08/13 05:52:58;;;;;;;7.28;3.90;;;;;;;19.24;53.59;95473.41;5089772;28;20107;-90
2023/08/13 05:55:23;;;;;;;5.50;3.72;;;;;;;19.33;53.35;95483.72;5071434;28;20068;-89
2023/08/13 05:57:48;;;;;;;4.90;3.63;;;;;;;19.37;53.42;95481.47;5088758;28;20016;-90
2023/08/13 06:00:14;;;;;;;6.10;3.47;;;;;;;19.39;53.54;95481.78;5087544;28;20088;-90
2023/08/13 06:02:40;;;;;;;4.97;3.80;;;;;;;19.41;52.93;95475.72;5089416;28;20090;-90
2023/08/13 06:05:06;;;;;;;6.50;3.50;;;;;;;19.47;52.96;95482.16;5087389;28;20031;-90
2023/08/13 06:07:33;;;;;;;4.82;3.92;;;;;;;19.51;52.56;95474.38;5072163;28;20118;-89
2023/08/13 06:09:58;;;;;;;4.43;4.03;;;;;;;19.50;52.70;95473.59;5070531;28;20595;-90
2023/08/13 06:12:24;;;;;;;5.82;3.15;;;;;;;19.56;52.60;95485.59;5089541;28;20058;-90
2023/08/13 06:14:49;;;;;;;6.30;3.90;;;;;;;19.60;52.70;95477.81;5071665;28;20064;-90
2023/08/13 06:17:14;;;;;;;5.38;3.63;;;;;;;19.65;52.42;95475.59;5088163;28;20027;-90
2023/08/13 06:19:40;;;;;;;4.65;3.55;;;;;;;19.73;52.32;95480.31;5089013;28;20032;-90
2023/08/13 06:22:05;;;;;;;8.32;3.88;;;;;;;19.80;52.25;95487.50;5086848;28;20076;-90
2023/08/13 06:24:31;;;;;;;3.78;3.38;;;;;;;19.80;52.31;95479.16;5088715;28;20073;-90
2023/08/13 06:26:57;;;;;;;6.03;4.28;;;;;;;19.80;52.06;95479.91;5069803;28;20508;-89
2023/08/13 06:29:22;;;;;;;5.82;3.47;;;;;;;19.86;51.90;95472.38;5071005;28;20096;-90
2023/08/13 06:31:48;;;;;;;4.85;3.80;;;;;;;19.91;51.80;95478.53;5087987;28;20394;-90
2023/08/13 06:34:14;;;;;;;6.00;3.88;;;;;;;20.03;51.56;95485.81;5098404;28;20210;-89
2023/08/13 06:36:40;;;;;;;5.55;4.45;;;;;;;20.06;51.29;95479.25;5088410;28;20022;-89
2023/08/13 06:39:05;;;;;;;5.40;3.83;;;;;;;20.11;51.38;95478.56;5086269;28;20115;-90
2023/08/13 06:41:31;;;;;;;6.13;4.15;;;;;;;20.20;51.13;95478.44;5071503;28;20028;-89
2023/08/13 06:43:56;;;;;;;6.75;3.92;;;;;;;20.28;51.02;95476.75;5086195;28;20617;-89
2023/08/13 06:46:22;;;;;;;5.35;3.65;;;;;;;20.37;50.78;95485.00;5071198;28;20465;-90
2023/08/13 06:48:48;;;;;;;7.90;4.10;;;;;;;20.47;50.09;95476.50;5088253;28;20375;-90
2023/08/13 06:51:14;;;;;;;6.03;3.63;;;;;;;20.53;50.24;95471.75;5088666;28;20031;-90
2023/08/13 06:53:39;;;;;;;5.80;3.88;;;;;;;20.60;49.40;95479.72;5087142;28;20028;-89
2023/08/13 06:56:06;;;;;;;5.13;3.70;;;;;;;20.63;49.70;95471.13;5088589;28;20039;-89
2023/08/13 06:58:31;;;;;;;4.47;3.47;;;;;;;20.69;49.98;95462.81;5088787;28;20035;-90
2023/08/13 07:00:57;;;;;;;6.10;3.90;;;;;;;20.84;49.67;95471.09;5085115;28;20099;-89
2023/08/13 07:03:23;;;;;;;5.78;3.65;;;;;;;20.98;49.14;95475.06;5070943;28;20919;-90
2023/08/13 07:05:48;;;;;;;5.53;3.47;;;;;;;21.01;47.74;95469.25;5086256;28;20835;-90
2023/08/13 07:08:13;;;;;;;6.65;3.60;;;;;;;21.10;48.15;95463.47;5087179;28;20114;-91
2023/08/13 07:10:40;;;;;;;4.50;3.50;;;;;;;21.24;47.41;95472.25;5086473;28;20078;-89
2023/08/13 07:13:06;;;;;;;5.90;3.72;;;;;;;21.34;46.87;95474.44;5069962;28;20028;-90
2023/08/13 07:15:31;;;;;;;8.18;3.15;;;;;;;21.45;46.36;95468.94;5088426;28;20035;-89
2023/08/13 07:17:57;;;;;;;5.22;3.45;;;;;;;21.55;46.41;95468.72;5092355;28;20024;-89
2023/08/13 07:20:22;;;;;;;6.07;3.45;;;;;;;21.63;46.45;95464.22;5093873;28;20517;-88
2023/08/13 07:22:47;;;;;;;5.40;3.53;;;;;;;21.74;46.25;95467.13;5091783;28;20035;-88
2023/08/13 07:25:13;;;;;;;4.93;3.50;;;;;;;21.83;45.63;95452.91;5074716;28;20093;-88
2023/08/13 07:27:40;;;;;;;8.45;4.15;;;;;;;21.96;45.12;95460.88;5089018;28;20016;-87
2023/08/13 07:30:07;;;;;;;5.22;3.70;;;;;;;22.10;44.83;95462.03;5090337;28;20032;-89
2023/08/13 07:32:37;;;;;;;7.32;3.70;;;;;;;22.22;43.97;95458.78;5090031;28;20024;-90
2023/08/13 07:35:02;;;;;;;7.32;4.10;;;;;;;22.34;43.92;95462.41;5088049;28;20032;-88
2023/08/13 07:37:28;;;;;;;5.53;3.70;;;;;;;22.43;44.09;95462.19;5090262;28;20032;-89
2023/08/13 07:39:54;;;;;;;4.68;3.78;;;;;;;22.64;43.40;95465.56;5069021;28;20128;-90
2023/08/13 07:42:20;;;;;;;4.28;3.25;;;;;;;22.74;43.23;95455.69;5087921;28;20480;-88
2023/08/13 07:44:45;;;;;;;5.38;3.67;;;;;;;22.83;42.58;95449.09;5087185;28;20105;-87
2023/08/13 07:47:11;;;;;;;4.80;3.33;;;;;;;22.99;42.66;95450.41;5087828;28;20034;-88
2023/08/13 07:49:36;;;;;;;3.63;3.00;;;;;;;23.10;42.53;95439.22;5087324;28;20039;-90
2023/08/13 07:52:01;;;;;;;3.50;3.08;;;;;;;23.22;41.97;95451.97;5085569;28;20089;-90
2023/08/13 07:54:28;;;;;;;4.28;3.20;;;;;;;23.36;42.24;95443.84;5069476;28;20115;-90
2023/08/13 07:56:54;;;;;;;3.55;3.20;;;;;;;23.51;41.11;95435.91;5085549;28;20016;-88
2023/08/13 07:59:19;;;;;;;4.05;3.60;;;;;;;23.62;41.16;95435.94;5087965;28;20024;-88
2023/08/13 08:01:45;;;;;;;4.50;3.15;;;;;;;23.74;40.79;95440.28;5084832;28;20115;-88
2023/08/13 08:04:10;;;;;;;5.28;3.97;;;;;;;23.87;40.26;95447.41;5087357;28;20024;-88
2023/08/13 08:06:36;;;;;;;5.40;3.55;;;;;;;23.99;39.46;95438.47;5087039;28;20077;-86
2023/08/13 08:09:02;;;;;;;4.05;3.08;;;;;;;24.08;39.90;95440.97;5086329;28;20546;-89
2023/08/13 08:11:27;;;;;;;5.05;3.25;;;;;;;24.21;39.58;95434.06;5087243;28;20039;-89
2023/08/13 08:13:52;;;;;;;5.68;3.15;;;;;;;24.38;38.96;95429.19;5085197;28;20020;-90
2023/08/13 08:16:18;;;;;;;5.85;3.33;;;;;;;24.44;38.89;95424.31;5086431;28;20032;-89
2023/08/13 08:18:43;;;;;;;4.45;3.15;;;;;;;24.58;39.14;95425.25;5084931;28;20027;-89
2023/08/13 08:21:09;;;;;;;4.45;2.90;;;;;;;24.74;38.48;95427.22;5089870;28;20035;-86
2023/08/13 08:23:34;;;;;;;5.47;3.20;;;;;;;24.83;38.61;95424.13;5068844;28;20059;-84
2023/08/13 08:26:00;;;;;;;3.80;3.22;;;;;;;24.98;38.14;95418.13;5085482;28;20379;-88
2023/08/13 08:28:26;;;;;;;3.22;2.92;;;;;;;25.05;37.78;95411.97;5068768;28;20111;-83
2023/08/13 08:30:52;;;;;;;3.75;3.05;;;;;;;25.10;37.83;95404.78;5067771;28;20024;-80
2023/08/13 08:33:17;;;;;;;3.72;2.90;;;;;;;25.26;37.36;95406.72;5068194;28;20089;-82
2023/08/13 08:35:42;;;;;;;4.13;3.10;;;;;;;25.36;37.00;95401.53;5084342;28;20028;-86
2023/08/13 08:38:08;;;;;;;5.75;3.10;;;;;;;25.49;36.88;95401.66;5085688;28;20025;-87
2023/08/13 08:40:33;;;;;;;5.25;3.15;;;;;;;25.63;36.57;95394.13;5068105;28;20402;-82
2023/08/13 08:42:59;;;;;;;5.22;2.95;;;;;;;25.82;35.87;95402.69;5085355;28;20024;-85
2023/08/13 08:45:24;;;;;;;6.80;2.97;;;;;;;25.91;35.57;95396.69;5084199;28;20107;-84
2023/08/13 08:47:51;;;;;;;5.20;2.90;;;;;;;26.07;35.28;95392.19;5084978;28;20145;-85
2023/08/13 08:50:16;;;;;;;4.65;3.15;;;;;;;26.19;35.44;95399.22;5084130;28;20418;-87
2023/08/13 08:52:42;;;;;;;4.03;2.70;;;;;;;26.28;33.36;95392.47;5084585;28;20480;-88
2023/08/13 08:55:10;;;;;;;5.43;2.42;;;;;;;26.31;33.95;95405.47;5068086;28;20467;-87
2023/08/13 08:57:37;;;;;;;4.22;2.80;;;;;;;26.41;34.33;95389.75;5067150;28;20032;-88
2023/08/13 09:00:03;;;;;;;4.65;2.97;;;;;;;26.57;33.53;95394.41;5068040;28;20028;-88
2023/08/13 09:02:28;;;;;;;5.75;2.90;;;;;;;26.73;32.94;95396.25;5085424;28;20035;-88
2023/08/13 09:04:54;;;;;;;3.40;3.00;;;;;;;26.89;32.92;95390.91;5085056;28;20040;-87
2023/08/13 09:07:27;;;;;;;4.05;2.60;;;;;;;27.04;32.57;95385.56;5084019;28;20024;-87
2023/08/13 09:09:52;;;;;;;3.05;2.60;;;;;;;27.11;32.66;95384.97;5084205;28;20075;-86
2023/08/13 09:12:18;;;;;;;5.28;2.40;;;;;;;27.27;33.03;95381.13;5086242;28;20055;-86
2023/08/13 09:14:44;;;;;;;6.38;2.95;;;;;;;27.43;32.19;95370.09;5083582;28;20111;-86
2023/08/13 09:17:11;;;;;;;4.57;2.85;;;;;;;27.58;32.18;95369.56;5067859;28;20586;-87
2023/08/13 09:19:36;;;;;;;3.75;2.95;;;;;;;27.82;32.37;95371.50;5083837;28;20566;-87
2023/08/13 09:22:03;;;;;;;3.33;2.40;;;;;;;27.97;30.68;95368.91;5084542;28;20112;-87
2023/08/13 09:24:33;;;;;;;2.97;2.40;;;;;;;28.08;30.99;95360.22;5088385;28;20111;-88
2023/08/13 09:26:59;;;;;;;3.00;2.40;;;;;;;28.15;31.12;95367.28;5088345;28;20020;-88
2023/08/13 09:29:26;;;;;;;5.43;2.53;;;;;;;28.31;30.01;95369.00;5088651;28;20028;-88
2023/08/13 09:31:52;;;;;;;4.13;2.58;;;;;;;28.39;30.50;95355.00;5087496;28;20032;-87
2023/08/13 09:34:18;;;;;;;3.08;2.70;;;;;;;28.64;30.51;95361.16;5088328;28;20050;-87
2023/08/13 09:36:44;;;;;;;3.17;2.50;;;;;;;28.61;30.28;95365.06;5070381;28;20028;-88
2023/08/13 09:39:10;;;;;;;3.78;2.60;;;;;;;28.88;29.52;95362.94;5088324;28;20028;-88
2023/08/13 09:41:35;;;;;;;3.00;2.67;;;;;;;29.15;29.29;95367.22;5070504;28;20047;-88
2023/08/13 09:44:09;;;;;;;5.80;2.70;;;;;;;29.40;29.03;95369.72;5071634;28;20470;-87
2023/08/13 09:46:35;;;;;;;5.13;2.67;;;;;;;29.60;28.89;95369.00;5088944;28;20057;-88
2023/08/13 09:49:02;;;;;;;6.57;2.90;;;;;;;29.82;28.89;95356.28;5088819;28;20032;-87
2023/08/13 09:51:33;;;;;;;3.13;2.65;;;;;;;29.99;28.12;95370.78;5088593;28;20110;-87
2023/08/13 09:54:13;;;;;;;2.83;2.25;;;;;;;30.12;26.82;95373.56;5069859;28;20122;-87
2023/08/13 09:56:40;;;;;;;3.05;2.45;;;;;;;30.25;27.54;95369.84;5071510;28;20061;-87
2023/08/13 09:59:06;;;;;;;2.97;2.10;;;;;;;30.28;26.51;95362.28;5070045;28;20028;-87
2023/08/13 10:01:32;;;;;;;4.85;3.08;;;;;;;30.32;26.92;95363.44;5087666;28;20035;-87
2023/08/13 10:03:58;;;;;;;3.40;2.40;;;;;;;30.48;27.94;95366.38;5070731;28;20123;-88
2023/08/13 10:06:24;;;;;;;8.65;2.83;;;;;;;30.70;27.82;95362.91;5069952;28;20043;-87
2023/08/13 10:08:49;;;;;;;3.60;2.38;;;;;;;30.92;26.90;95355.81;5089179;28;20103;-87
2023/08/13 10:11:15;;;;;;;3.83;2.38;;;;;;;31.11;26.89;95358.31;5086308;28;20414;-87
2023/08/13 10:13:41;;;;;;;3.85;2.53;;;;;;;31.27;26.84;95353.44;5087683;28;20044;-87
2023/08/13 10:16:08;;;;;;;4.80;2.58;;;;;;;31.41;25.87;95360.47;5069527;28;20020;-87
2023/08/13 10:18:34;;;;;;;3.92;2.40;;;;;;;31.62;25.30;95358.19;5070510;28;20060;-87
2023/08/13 10:20:59;;;;;;;3.55;2.58;;;;;;;31.73;25.28;95362.75;5087112;28;20023;-87
2023/08/13 10:23:26;;;;;;;3.10;2.50;;;;;;;31.94;24.94;95356.88;5070587;28;20538;-87
2023/08/13 10:25:53;;;;;;;3.47;3.10;;;;;;;31.81;24.48;95355.00;5071187;28;20032;-87
2023/08/13 10:28:23;;;;;;;4.30;2.60;;;;;;;31.77;25.08;95351.75;5086421;28;20042;-86
2023/08/13 10:30:49;;;;;;;5.15;2.70;;;;;;;31.69;25.62;95357.44;5087888;28;20032;-87
2023/08/13 10:33:15;;;;;;;3.40;2.58;;;;;;;31.69;26.02;95362.38;5086459;28;20024;-87
2023/08/13 10:35:42;;;;;;;3.90;2.80;;;;;;;31.43;26.17;95352.16;5086423;28;20024;-87
2023/08/13 10:38:08;;;;;;;4.60;2.28;;;;;;;31.25;26.50;95350.41;5086534;28;20115;-87
2023/08/13 10:40:34;;;;;;;4.50;3.10;;;;;;;31.13;26.64;95356.41;5070010;28;20478;-87
2023/08/13 10:43:02;;;;;;;3.42;2.40;;;;;;;31.02;26.46;95358.84;5086928;28;20096;-87
2023/08/13 10:45:30;;;;;;;4.03;2.60;;;;;;;30.75;26.35;95361.22;5085928;28;20482;-88
2023/08/13 10:48:03;;;;;;;4.15;2.38;;;;;;;30.30;27.04;95356.84;5092642;28;20042;-87
2023/08/13 10:50:38;;;;;;;4.95;2.80;;;;;;;30.11;27.43;95348.59;5087847;28;20582;-87
2023/08/13 10:53:20;;;;;;;5.07;2.55;;;;;;;29.98;28.23;95352.25;5069702;28;20028;-87
2023/08/13 10:55:48;;;;;;;3.10;2.40;;;;;;;29.70;28.27;95352.25;5086867;28;20032;-87
2023/08/13 10:58:35;;;;;;;2.60;2.40;;;;;;;29.41;28.36;95359.91;5086439;28;20016;-86
2023/08/13 11:01:10;;;;;;;3.80;2.65;;;;;;;29.17;28.56;95353.28;5088783;28;20035;-89
2023/08/13 11:03:46;;;;;;;3.38;3.08;;;;;;;29.16;28.84;95342.50;5087205;28;20457;-86
2023/08/13 11:06:12;;;;;;;3.85;2.65;;;;;;;29.08;28.89;95337.53;5085944;28;20543;-87
2023/08/13 11:08:38;;;;;;;3.55;2.67;;;;;;;29.17;29.61;95333.47;5069575;28;20036;-85
2023/08/13 11:11:06;;;;;;;3.63;2.45;;;;;;;29.24;28.85;95338.44;5085420;28;20032;-87
2023/08/13 11:13:32;;;;;;;3.20;2.55;;;;;;;29.26;28.66;95327.31;5088295;28;20016;-87
2023/08/13 11:15:58;;;;;;;3.72;3.20;;;;;;;29.30;28.87;95339.03;5085537;28;20054;-88
2023/08/13 11:18:23;;;;;;;2.90;2.55;;;;;;;29.36;28.93;95336.88;5069608;28;20478;-87
2023/08/13 11:20:49;;;;;;;4.65;2.85;;;;;;;29.43;29.46;95332.56;5086801;28;20456;-88
2023/08/13 11:23:16;;;;;;;4.28;2.92;;;;;;;29.40;28.72;95330.84;5068874;28;20036;-87
2023/08/13 11:25:42;;;;;;;3.85;2.60;;;;;;;29.47;29.06;95329.38;5085729;28;20063;-90
2023/08/13 11:28:08;;;;;;;4.15;3.03;;;;;;;29.57;28.85;95325.53;5068294;28;20119;-87
2023/08/13 11:30:33;;;;;;;3.65;2.83;;;;;;;29.75;29.03;95323.00;5086415;28;20056;-88